Time;durP1;ratioP1;P1;durP2;ratioP2;P2;SDS_P1;SDS_P2;PMS_P1;PMS_P2;Temp;Humidity;BMP_temperature;BMP_pressure;BME280_temperature;BME280_humidity;BME280_pressure;Samples;Min_cycle;Max_cycle;Signal;HPM_P1;HPM_P2
2023/04/12 00:00:25;;;;;;;8.57;1.70;;;9.70;99.90;;;;;;5072382;28;20036;-35
2023/04/12 00:02:52;;;;;;;6.93;1.42;;;9.70;99.90;;;;;;5073204;28;20023;-38
2023/04/12 00:05:21;;;;;;;3.50;1.23;;;9.60;99.90;;;;;;5073329;28;20427;-38
2023/04/12 00:07:48;;;;;;;4.70;1.40;;;9.60;99.90;;;;;;5071811;28;20121;-38
2023/04/12 00:10:14;;;;;;;6.40;1.67;;;9.50;99.90;;;;;;5071749;28;20056;-37
2023/04/12 00:12:40;;;;;;;7.47;1.38;;;9.40;99.90;;;;;;5072872;28;20020;-38
2023/04/12 00:15:07;;;;;;;2.97;1.02;;;9.40;99.90;;;;;;5073284;28;20027;-38
2023/04/12 00:17:32;;;;;;;3.97;0.88;;;9.40;99.90;;;;;;5070392;28;20024;-36
2023/04/12 00:19:58;;;;;;;3.35;0.98;;;9.30;99.90;;;;;;5072879;28;20476;-39
2023/04/12 00:22:25;;;;;;;3.30;1.33;;;9.30;99.90;;;;;;5072889;28;20036;-38
2023/04/12 00:24:51;;;;;;;2.20;0.90;;;9.30;99.90;;;;;;5071080;28;20035;-38
2023/04/12 00:27:16;;;;;;;3.40;1.42;;;9.30;99.90;;;;;;5068795;28;20159;-38
2023/04/12 00:29:42;;;;;;;5.13;1.55;;;9.30;99.90;;;;;;5071043;28;20028;-39
2023/04/12 00:32:08;;;;;;;2.72;1.08;;;9.20;99.90;;;;;;5059483;28;20107;-40
2023/04/12 00:34:33;;;;;;;4.45;1.30;;;9.20;99.90;;;;;;5067075;28;20082;-38
2023/04/12 00:37:01;;;;;;;6.60;1.35;;;9.20;99.90;;;;;;5059295;28;20024;-37
2023/04/12 00:39:26;;;;;;;1.92;0.75;;;9.20;99.90;;;;;;5062730;28;20482;-38
2023/04/12 00:41:52;;;;;;;4.20;1.05;;;9.10;99.90;;;;;;5052952;28;20029;-35
2023/04/12 00:44:17;;;;;;;7.68;2.03;;;9.10;99.90;;;;;;5068660;28;20099;-34
2023/04/12 00:46:45;;;;;;;0.93;0.73;;;9.00;99.90;;;;;;5071322;28;20505;-37
2023/04/12 00:49:11;;;;;;;2.88;1.00;;;9.00;99.90;;;;;;5072677;28;20039;-37
2023/04/12 00:51:38;;;;;;;3.92;0.98;;;9.00;99.90;;;;;;5070797;28;20036;-38
2023/04/12 00:54:05;;;;;;;2.55;1.08;;;9.00;99.90;;;;;;5072888;28;20497;-40
2023/04/12 00:56:31;;;;;;;2.45;0.88;;;9.00;99.90;;;;;;5055961;28;20047;-36
2023/04/12 00:58:57;;;;;;;4.72;0.50;;;8.90;99.90;;;;;;5052379;28;20041;-38
2023/04/12 01:01:22;;;;;;;3.80;0.80;;;8.90;99.90;;;;;;5052221;28;20041;-39
2023/04/12 01:03:52;;;;;;;5.70;1.25;;;9.00;99.90;;;;;;5056852;28;20044;-37
2023/04/12 01:06:28;;;;;;;4.75;0.82;;;8.90;99.90;;;;;;5071009;28;20481;-36
2023/04/12 01:09:26;;;;;;;3.42;1.00;;;8.90;99.90;;;;;;5069454;28;20411;-36
2023/04/12 01:12:13;;;;;;;1.58;0.57;;;8.90;99.90;;;;;;5067954;28;20032;-39
2023/04/12 01:14:55;;;;;;;3.50;0.88;;;8.90;99.90;;;;;;5061546;28;20033;-37
2023/04/12 01:17:27;;;;;;;2.35;0.73;;;8.90;99.90;;;;;;5063656;28;20028;-38
2023/04/12 01:20:11;;;;;;;1.80;0.93;;;8.90;99.90;;;;;;5072256;28;20506;-38
2023/04/12 01:23:16;;;;;;;1.13;0.50;;;8.90;99.90;;;;;;5072474;28;20033;-38
2023/04/12 01:25:47;;;;;;;1.85;1.00;;;8.90;99.90;;;;;;5071586;28;20025;-40
2023/04/12 01:28:22;;;;;;;3.67;1.70;;;8.90;99.90;;;;;;5072314;28;20040;-38
2023/04/12 01:30:50;;;;;;;0.70;0.60;;;8.90;99.90;;;;;;5072313;28;20484;-39
2023/04/12 01:33:16;;;;;;;;;;;9.00;99.90;;;;;;5072943;28;20037;-36
2023/04/12 01:35:43;;;;;;;2.15;1.20;;;8.90;99.90;;;;;;5072234;28;20376;-35
2023/04/12 01:38:09;;;;;;;4.72;1.00;;;8.90;99.90;;;;;;5071974;28;20047;-33
2023/04/12 01:40:35;;;;;;;2.60;1.00;;;8.90;99.90;;;;;;5074100;28;20032;-38
2023/04/12 01:43:18;;;;;;;5.63;0.93;;;8.90;99.90;;;;;;5075494;28;20433;-37
2023/04/12 01:45:44;;;;;;;1.13;1.02;;;8.90;99.90;;;;;;5075820;28;20024;-39
2023/04/12 01:48:11;;;;;;;4.78;0.95;;;8.90;99.90;;;;;;5072724;28;20435;-36
2023/04/12 01:51:01;;;;;;;5.70;1.20;;;8.90;99.90;;;;;;5056424;28;20547;-39
2023/04/12 01:54:11;;;;;;;1.75;0.85;;;9.00;99.90;;;;;;5061438;28;20068;-37
2023/04/12 01:56:44;;;;;;;2.08;1.13;;;8.90;99.90;;;;;;5050646;28;20052;-39
2023/04/12 01:59:13;;;;;;;2.28;0.90;;;8.90;99.90;;;;;;5055476;28;20041;-36
2023/04/12 02:01:39;;;;;;;4.32;0.77;;;9.00;99.90;;;;;;5059026;28;20041;-33
2023/04/12 02:04:07;;;;;;;1.88;0.80;;;8.90;99.90;;;;;;5066249;28;20122;-39
2023/04/12 02:06:33;;;;;;;2.88;0.98;;;9.00;99.90;;;;;;5074710;28;20039;-39
2023/04/12 02:09:01;;;;;;;2.95;1.00;;;8.90;99.90;;;;;;5074562;28;20116;-36
2023/04/12 02:11:27;;;;;;;3.67;0.73;;;8.90;99.90;;;;;;5065311;28;20536;-37
2023/04/12 02:13:53;;;;;;;2.08;0.90;;;9.00;99.90;;;;;;5058569;28;20501;-37
2023/04/12 02:16:19;;;;;;;2.70;0.82;;;8.90;99.90;;;;;;5055473;28;20036;-36
2023/04/12 02:18:46;;;;;;;3.47;1.30;;;8.90;99.90;;;;;;5073115;28;20567;-38
2023/04/12 02:21:12;;;;;;;4.95;0.80;;;8.80;99.90;;;;;;5069270;28;20052;-38
2023/04/12 02:23:37;;;;;;;4.28;1.15;;;8.80;99.90;;;;;;5075090;28;20067;-34
2023/04/12 02:26:03;;;;;;;4.47;0.85;;;8.80;99.90;;;;;;5075075;28;20473;-40
2023/04/12 02:28:29;;;;;;;5.15;0.73;;;8.80;99.90;;;;;;5075221;28;20074;-36
2023/04/12 02:30:55;;;;;;;3.60;0.75;;;8.80;99.90;;;;;;5073484;28;20516;-40
2023/04/12 02:33:24;;;;;;;4.28;1.05;;;8.80;99.90;;;;;;5074908;28;20054;-37
2023/04/12 02:35:50;;;;;;;1.48;1.13;;;8.80;99.90;;;;;;5073520;28;20032;-38
2023/04/12 02:38:16;;;;;;;1.88;0.95;;;8.80;99.90;;;;;;5072440;28;20572;-39
2023/04/12 02:40:42;;;;;;;1.80;0.52;;;8.80;99.90;;;;;;5071026;28;20107;-37
2023/04/12 02:43:08;;;;;;;4.75;1.30;;;8.80;99.90;;;;;;5064744;28;20133;-39
2023/04/12 02:45:34;;;;;;;3.65;0.65;;;8.80;99.90;;;;;;5074896;28;20025;-37
2023/04/12 02:48:00;;;;;;;3.97;1.02;;;8.80;99.90;;;;;;5057508;28;20052;-38
2023/04/12 02:50:25;;;;;;;2.65;0.80;;;8.70;99.90;;;;;;5058365;28;20068;-40
2023/04/12 02:52:51;;;;;;;3.45;0.95;;;8.70;99.90;;;;;;5073590;28;20444;-37
2023/04/12 02:55:17;;;;;;;2.13;1.17;;;8.70;99.90;;;;;;5074456;28;20032;-34
2023/04/12 02:57:47;;;;;;;3.85;0.85;;;8.70;99.90;;;;;;5074664;28;20024;-38
2023/04/12 03:00:16;;;;;;;4.63;1.13;;;8.70;99.90;;;;;;5056807;28;20124;-39
2023/04/12 03:02:43;;;;;;;2.72;0.80;;;8.70;99.90;;;;;;5054637;28;20536;-34
2023/04/12 03:05:09;;;;;;;9.60;1.08;;;8.60;99.90;;;;;;5070195;28;20029;-35
2023/04/12 03:07:35;;;;;;;2.85;0.95;;;8.70;99.90;;;;;;5073642;28;20167;-36
2023/04/12 03:10:04;;;;;;;8.05;1.20;;;8.60;99.90;;;;;;5074245;28;20115;-33
2023/04/12 03:12:29;;;;;;;4.93;0.80;;;8.60;99.90;;;;;;5068917;28;20133;-34
2023/04/12 03:14:55;;;;;;;3.70;1.05;;;8.60;99.90;;;;;;5053722;28;20056;-40
2023/04/12 03:17:20;;;;;;;3.60;0.98;;;8.60;99.90;;;;;;5054607;28;20166;-37
2023/04/12 03:19:47;;;;;;;2.90;0.90;;;8.60;99.90;;;;;;5053948;28;20537;-38
2023/04/12 03:22:13;;;;;;;3.58;0.93;;;8.60;99.90;;;;;;5054934;28;20467;-35
2023/04/12 03:24:41;;;;;;;5.85;1.13;;;8.60;99.90;;;;;;5053927;28;20040;-38
2023/04/12 03:27:07;;;;;;;5.43;1.50;;;8.60;99.90;;;;;;5054477;28;20025;-37
2023/04/12 03:29:33;;;;;;;1.67;0.80;;;8.60;99.90;;;;;;5073779;28;20089;-38
2023/04/12 03:31:58;;;;;;;6.50;1.48;;;8.60;99.90;;;;;;5059514;28;20427;-36
2023/04/12 03:34:34;;;;;;;1.25;0.90;;;8.50;99.90;;;;;;5053704;28;20477;-39
2023/04/12 03:37:00;;;;;;;3.08;0.80;;;8.50;99.90;;;;;;5061322;28;20028;-35
2023/04/12 03:39:26;;;;;;;5.47;1.20;;;8.60;99.90;;;;;;5073744;28;20468;-36
2023/04/12 03:41:52;;;;;;;4.82;0.90;;;8.60;99.90;;;;;;5060332;28;20032;-39
2023/04/12 03:44:18;;;;;;;1.90;1.02;;;8.60;99.90;;;;;;5053740;28;20021;-40
2023/04/12 03:46:44;;;;;;;2.85;0.82;;;8.60;99.90;;;;;;5053496;28;20029;-39
2023/04/12 03:49:10;;;;;;;8.45;1.00;;;8.60;99.90;;;;;;5053709;28;20032;-40
2023/04/12 03:51:41;;;;;;;4.00;1.25;;;8.60;99.90;;;;;;5060674;28;20032;-40
2023/04/12 03:54:08;;;;;;;2.30;1.30;;;8.50;99.90;;;;;;5063099;28;20033;-39
2023/04/12 03:56:33;;;;;;;1.25;0.65;;;8.50;99.90;;;;;;5052878;28;20029;-41
2023/04/12 03:58:59;;;;;;;0.95;0.95;;;8.60;99.90;;;;;;5053191;28;20028;-39
2023/04/12 04:01:25;;;;;;;2.72;1.10;;;8.60;99.90;;;;;;5052783;28;20041;-36
2023/04/12 04:03:51;;;;;;;1.60;1.10;;;8.50;99.90;;;;;;5058381;28;20062;-38
2023/04/12 04:06:17;;;;;;;3.28;1.10;;;8.50;99.90;;;;;;5071894;28;20024;-38
2023/04/12 04:08:43;;;;;;;4.43;0.90;;;8.40;99.90;;;;;;5073131;28;20025;-38
2023/04/12 04:11:10;;;;;;;3.35;0.98;;;8.40;99.90;;;;;;5070056;28;20024;-38
2023/04/12 04:13:36;;;;;;;3.83;0.95;;;8.50;99.90;;;;;;5053021;28;20115;-38
2023/04/12 04:16:03;;;;;;;1.67;1.00;;;8.50;99.90;;;;;;5053267;28;20111;-39
2023/04/12 04:18:30;;;;;;;2.78;1.10;;;8.50;99.90;;;;;;5052915;28;20433;-38
2023/04/12 04:20:55;;;;;;;2.45;0.80;;;8.50;99.90;;;;;;5055702;28;20047;-35
2023/04/12 04:23:22;;;;;;;1.15;1.05;;;8.50;99.90;;;;;;5072987;28;20468;-37
2023/04/12 04:25:48;;;;;;;2.15;0.80;;;8.60;99.90;;;;;;5072927;28;20107;-40
2023/04/12 04:28:14;;;;;;;0.80;0.80;;;8.60;99.90;;;;;;5072870;28;20472;-41
2023/04/12 04:30:40;;;;;;;2.25;1.10;;;8.50;99.90;;;;;;5070563;28;20546;-37
2023/04/12 04:33:06;;;;;;;2.35;1.13;;;8.50;99.90;;;;;;5052756;28;20041;-37
2023/04/12 04:35:32;;;;;;;3.83;1.10;;;8.60;99.90;;;;;;5066679;28;20035;-37
2023/04/12 04:38:00;;;;;;;1.70;1.10;;;8.60;99.90;;;;;;5072101;28;20103;-40
2023/04/12 04:40:25;;;;;;;2.50;1.25;;;8.60;99.90;;;;;;5069834;28;20496;-35
2023/04/12 04:42:54;;;;;;;2.95;1.13;;;8.50;99.90;;;;;;5072954;28;20025;-38
2023/04/12 04:45:27;;;;;;;2.05;0.93;;;8.50;99.90;;;;;;5072635;28;20017;-39
2023/04/12 04:47:53;;;;;;;1.70;1.00;;;8.60;99.90;;;;;;5072665;28;20033;-40
2023/04/12 04:50:23;;;;;;;0.70;0.70;;;8.50;99.90;;;;;;5071198;28;20028;-40
2023/04/12 04:52:50;;;;;;;1.63;0.95;;;8.50;99.90;;;;;;5069883;28;20500;-38
2023/04/12 04:55:16;;;;;;;3.22;1.45;;;8.50;99.90;;;;;;5072623;28;20060;-39
2023/04/12 04:57:42;;;;;;;2.88;1.30;;;8.60;99.90;;;;;;5072844;28;20389;-37
2023/04/12 05:00:12;;;;;;;3.63;1.67;;;8.60;99.90;;;;;;5071302;28;20097;-37
2023/04/12 05:02:41;;;;;;;2.65;1.20;;;8.60;99.90;;;;;;5072897;28;20017;-37
2023/04/12 05:05:14;;;;;;;1.60;1.50;;;8.60;99.90;;;;;;5072487;28;20125;-38
2023/04/12 05:07:42;;;;;;;1.85;1.25;;;8.70;99.90;;;;;;5071327;28;20052;-36
2023/04/12 05:10:09;;;;;;;2.95;1.35;;;8.60;99.90;;;;;;5072515;28;20495;-38
2023/04/12 05:12:35;;;;;;;2.20;1.23;;;8.70;99.90;;;;;;5072379;28;20032;-38
2023/04/12 05:15:01;;;;;;;4.82;1.17;;;8.80;99.90;;;;;;5071727;28;20082;-36
2023/04/12 05:17:27;;;;;;;2.22;1.27;;;8.70;99.90;;;;;;5076319;28;20032;-38
2023/04/12 05:19:52;;;;;;;4.38;1.33;;;8.80;99.90;;;;;;5076492;28;20149;-37
2023/04/12 05:22:21;;;;;;;3.10;1.55;;;8.80;99.90;;;;;;5075038;28;20021;-35
2023/04/12 05:24:47;;;;;;;4.28;1.85;;;8.70;99.90;;;;;;5076144;28;20033;-41
2023/04/12 05:27:15;;;;;;;3.65;1.70;;;8.70;99.90;;;;;;5074591;28;20020;-39
2023/04/12 05:29:44;;;;;;;1.67;1.50;;;8.70;99.90;;;;;;5076148;28;20474;-39
2023/04/12 05:32:09;;;;;;;3.17;1.95;;;8.80;99.90;;;;;;5076207;28;20075;-39
2023/04/12 05:34:36;;;;;;;2.05;1.67;;;8.70;99.90;;;;;;5076021;28;20028;-39
2023/04/12 05:37:04;;;;;;;5.25;1.63;;;8.70;99.90;;;;;;5060884;28;20447;-37
2023/04/12 05:39:30;;;;;;;2.75;1.92;;;8.80;99.90;;;;;;5055824;28;20040;-37
2023/04/12 05:41:56;;;;;;;3.08;1.70;;;8.80;99.90;;;;;;5059640;28;20032;-38
2023/04/12 05:44:21;;;;;;;3.17;1.73;;;8.80;99.90;;;;;;5075722;28;20091;-37
2023/04/12 05:46:47;;;;;;;4.35;1.50;;;8.80;99.90;;;;;;5075741;28;20111;-38
2023/04/12 05:49:13;;;;;;;4.03;1.60;;;8.90;99.90;;;;;;5075755;28;20024;-36
2023/04/12 05:51:38;;;;;;;1.38;1.27;;;8.90;99.90;;;;;;5072635;28;20481;-38
2023/04/12 05:54:06;;;;;;;6.97;1.67;;;8.90;99.90;;;;;;5075587;28;20025;-38
2023/04/12 05:56:32;;;;;;;4.83;3.00;;;8.90;99.90;;;;;;5075650;28;20500;-39
2023/04/12 05:59:00;;;;;;;1.77;1.67;;;9.00;99.90;;;;;;5075474;28;20052;-40
2023/04/12 06:01:30;;;;;;;4.80;1.60;;;9.00;99.90;;;;;;5073566;28;20123;-37
2023/04/12 06:03:58;;;;;;;2.75;1.35;;;9.00;99.90;;;;;;5075406;28;20380;-36
2023/04/12 06:06:28;;;;;;;4.03;1.60;;;9.00;99.90;;;;;;5070333;28;20428;-38
2023/04/12 06:08:59;;;;;;;2.50;1.83;;;9.10;99.90;;;;;;5053999;28;20037;-37
2023/04/12 06:11:25;;;;;;;7.78;2.30;;;9.10;99.90;;;;;;5055380;28;20044;-35
2023/04/12 06:13:51;;;;;;;2.67;1.90;;;9.10;99.90;;;;;;5055433;28;20509;-37
2023/04/12 06:16:17;;;;;;;7.28;1.98;;;9.10;99.90;;;;;;5055374;28;20044;-35
2023/04/12 06:18:42;;;;;;;2.97;2.05;;;9.10;99.90;;;;;;5055049;28;20040;-39
2023/04/12 06:21:08;;;;;;;2.80;1.95;;;9.10;99.90;;;;;;5057140;28;20021;-38
2023/04/12 06:23:34;;;;;;;6.45;2.00;;;9.20;99.90;;;;;;5075252;28;20052;-38
2023/04/12 06:25:59;;;;;;;6.15;2.30;;;9.20;99.90;;;;;;5075237;28;20498;-39
2023/04/12 06:28:25;;;;;;;4.65;2.22;;;9.20;99.90;;;;;;5075005;28;20031;-37
2023/04/12 06:30:51;;;;;;;8.95;2.63;;;9.30;99.90;;;;;;5073725;28;20033;-34
2023/04/12 06:33:16;;;;;;;3.78;2.80;;;9.30;99.90;;;;;;5054880;28;20029;-38
2023/04/12 06:35:42;;;;;;;5.75;2.28;;;9.30;99.90;;;;;;5054849;28;20115;-39
2023/04/12 06:38:08;;;;;;;6.70;2.53;;;9.30;99.90;;;;;;5071124;28;20028;-38
2023/04/12 06:40:33;;;;;;;13.85;2.60;;;9.30;99.90;;;;;;5074646;28;20191;-38
2023/04/12 06:42:59;;;;;;;3.58;2.45;;;9.30;99.90;;;;;;5073196;28;20028;-36
2023/04/12 06:45:25;;;;;;;4.82;2.67;;;9.30;99.90;;;;;;5073538;28;20021;-40
2023/04/12 06:47:50;;;;;;;6.22;2.40;;;9.30;99.90;;;;;;5054416;28;20021;-37
2023/04/12 06:50:17;;;;;;;6.35;2.85;;;9.40;99.90;;;;;;5054854;28;20044;-39
2023/04/12 06:52:43;;;;;;;3.97;2.85;;;9.50;99.90;;;;;;5065632;28;20029;-35
2023/04/12 06:55:09;;;;;;;7.00;2.42;;;9.50;99.90;;;;;;5074465;28;20036;-39
2023/04/12 06:57:34;;;;;;;5.85;2.50;;;9.50;99.90;;;;;;5056297;28;20033;-40
2023/04/12 07:00:00;;;;;;;10.35;2.78;;;9.50;99.90;;;;;;5064624;28;20036;-40
2023/04/12 07:02:26;;;;;;;6.55;2.72;;;9.60;99.90;;;;;;5065806;28;20392;-39
2023/04/12 07:04:53;;;;;;;7.63;2.90;;;9.50;99.90;;;;;;5067761;28;20017;-38
2023/04/12 07:07:19;;;;;;;9.27;3.05;;;9.50;99.90;;;;;;5074003;28;20104;-39
2023/04/12 07:09:46;;;;;;;9.45;3.03;;;9.60;99.90;;;;;;5060426;28;20025;-36
2023/04/12 07:12:12;;;;;;;10.07;3.17;;;9.60;99.90;;;;;;5061767;28;20384;-38
2023/04/12 07:14:38;;;;;;;7.50;2.88;;;9.60;99.90;;;;;;5067984;28;20025;-35
2023/04/12 07:17:04;;;;;;;9.05;3.25;;;9.70;99.90;;;;;;5073600;28;20071;-37
2023/04/12 07:19:30;;;;;;;8.82;3.75;;;9.60;99.90;;;;;;5054202;28;20071;-34
2023/04/12 07:21:57;;;;;;;12.15;2.88;;;9.60;99.90;;;;;;5055220;28;20021;-38
2023/04/12 07:24:23;;;;;;;10.85;3.67;;;9.70;99.90;;;;;;5054182;28;20021;-40
2023/04/12 07:26:48;;;;;;;10.30;3.63;;;9.80;99.90;;;;;;5053999;28;20363;-36
2023/04/12 07:29:15;;;;;;;14.65;3.42;;;9.80;99.90;;;;;;5053630;28;20021;-38
2023/04/12 07:31:41;;;;;;;13.25;3.30;;;9.90;99.90;;;;;;5053763;28;20096;-38
2023/04/12 07:34:07;;;;;;;10.65;2.78;;;9.90;99.90;;;;;;5055343;28;20469;-39
2023/04/12 07:36:32;;;;;;;19.77;3.72;;;9.90;99.90;;;;;;5073577;28;20021;-37
2023/04/12 07:38:58;;;;;;;6.97;2.92;;;10.00;99.90;;;;;;5068510;28;20085;-37
2023/04/12 07:41:24;;;;;;;14.38;2.70;;;10.20;99.90;;;;;;5069861;28;20455;-37
2023/04/12 07:43:49;;;;;;;9.23;2.75;;;10.30;99.90;;;;;;5071206;28;20020;-40
2023/04/12 07:46:15;;;;;;;10.25;2.67;;;10.40;99.90;;;;;;5073625;28;20028;-34
2023/04/12 07:48:42;;;;;;;15.05;2.88;;;10.40;99.90;;;;;;5065906;28;20017;-38
2023/04/12 07:51:08;;;;;;;16.25;6.88;;;10.40;99.90;;;;;;5066975;28;20036;-34
2023/04/12 07:53:33;;;;;;;22.40;4.38;;;10.40;99.90;;;;;;5057373;28;20390;-37
2023/04/12 07:55:59;;;;;;;11.68;2.42;;;10.40;99.90;;;;;;5053859;28;20025;-38
2023/04/12 07:58:25;;;;;;;9.65;2.20;;;10.40;99.90;;;;;;5073180;28;20103;-37
2023/04/12 08:00:52;;;;;;;16.10;2.42;;;10.50;99.90;;;;;;5060173;28;20094;-39
2023/04/12 08:03:18;;;;;;;13.97;2.43;;;10.60;99.90;;;;;;5058030;28;20488;-39
2023/04/12 08:05:44;;;;;;;24.67;3.70;;;10.70;99.90;;;;;;5063460;28;20059;-31
2023/04/12 08:08:10;;;;;;;13.18;3.03;;;10.80;99.90;;;;;;5059746;28;20040;-33
2023/04/12 08:10:37;;;;;;;13.65;2.65;;;10.90;99.90;;;;;;5070477;28;20035;-36
2023/04/12 08:13:04;;;;;;;13.95;3.72;;;11.00;99.90;;;;;;5071162;28;20013;-36
2023/04/12 08:15:29;;;;;;;9.70;2.58;;;11.00;99.90;;;;;;5056246;28;20029;-38
2023/04/12 08:17:55;;;;;;;14.77;2.40;;;11.00;99.90;;;;;;5064257;28;20091;-38
2023/04/12 08:20:20;;;;;;;12.65;2.28;;;11.00;99.90;;;;;;5070577;28;20032;-36
2023/04/12 08:22:48;;;;;;;12.73;2.13;;;11.10;99.90;;;;;;5055056;28;20029;-33
2023/04/12 08:25:13;;;;;;;12.60;2.87;;;11.30;99.90;;;;;;5070185;28;20485;-36
2023/04/12 08:27:41;;;;;;;15.63;2.30;;;11.50;99.90;;;;;;5066564;28;20103;-36
2023/04/12 08:30:07;;;;;;;;;;;11.70;99.90;;;;;;5067406;28;20032;-36
2023/04/12 08:32:34;;;;;;;9.68;2.28;;;11.80;99.90;;;;;;5062523;28;19909;-35
2023/04/12 08:34:59;;;;;;;13.38;2.60;;;11.90;99.90;;;;;;5059871;28;20025;-36
2023/04/12 08:37:25;;;;;;;21.77;2.67;;;12.00;99.90;;;;;;5071088;28;20035;-34
2023/04/12 08:39:51;;;;;;;19.90;3.08;;;12.00;99.90;;;;;;5071620;28;20147;-38
2023/04/12 08:42:17;;;;;;;9.77;1.95;;;12.10;99.90;;;;;;5059791;28;20070;-33
2023/04/12 08:44:43;;;;;;;15.88;1.98;;;12.20;99.90;;;;;;5068215;28;20023;-35
2023/04/12 08:47:09;;;;;;;11.73;1.40;;;12.50;99.90;;;;;;5052337;28;20112;-38
2023/04/12 08:49:35;;;;;;;16.73;2.15;;;12.70;99.90;;;;;;5052918;28;20524;-36
2023/04/12 08:52:06;;;;;;;16.60;3.13;;;12.90;99.90;;;;;;5068849;28;20049;-37
2023/04/12 08:54:33;;;;;;;13.38;2.30;;;12.90;99.90;;;;;;5056431;28;20072;-34
2023/04/12 08:57:01;;;;;;;22.02;3.72;;;12.90;99.90;;;;;;5066081;28;20546;-38
2023/04/12 08:59:27;;;;;;;13.60;2.35;;;13.10;99.90;;;;;;5072332;28;20031;-38
2023/04/12 09:01:57;;;;;;;10.98;1.75;;;13.30;99.90;;;;;;5074284;28;20044;-39
2023/04/12 09:04:23;;;;;;;16.63;2.80;;;13.30;99.90;;;;;;5064791;28;20033;-40
2023/04/12 09:06:49;;;;;;;10.13;1.67;;;13.20;99.90;;;;;;5075240;28;20530;-38
2023/04/12 09:09:15;;;;;;;18.98;2.58;;;13.00;99.90;;;;;;5060028;28;20055;-40
2023/04/12 09:11:41;;;;;;;8.05;1.98;;;12.80;99.90;;;;;;5064911;28;20134;-36
2023/04/12 09:14:24;;;;;;;11.77;2.00;;;12.70;99.90;;;;;;5067537;28;20033;-38
2023/04/12 09:16:50;;;;;;;7.35;1.40;;;12.80;99.90;;;;;;5072682;28;20029;-42
2023/04/12 09:19:29;;;;;;;14.63;1.50;;;13.00;99.90;;;;;;5058251;28;20561;-39
2023/04/12 09:21:55;;;;;;;15.32;3.17;;;13.20;99.90;;;;;;5061855;28;20485;-34
2023/04/12 09:24:24;;;;;;;10.88;1.67;;;13.40;99.90;;;;;;5066396;28;20551;-36
2023/04/12 09:27:03;;;;;;;4.47;1.33;;;13.70;99.90;;;;;;5055768;28;20363;-38
2023/04/12 09:29:29;;;;;;;11.35;1.65;;;13.70;99.90;;;;;;5055975;28;20410;-39
2023/04/12 09:32:06;;;;;;;20.02;2.20;;;13.70;99.90;;;;;;5055660;28;20026;-37
2023/04/12 09:34:34;;;;;;;11.95;1.75;;;13.30;99.90;;;;;;5064042;28;20036;-39
2023/04/12 09:37:15;;;;;;;19.17;1.75;;;13.20;99.90;;;;;;5076247;28;20024;-37
2023/04/12 09:39:41;;;;;;;8.13;1.80;;;13.30;99.90;;;;;;5067888;28;20047;-36
2023/04/12 09:42:11;;;;;;;8.35;1.50;;;13.30;99.90;;;;;;5065838;28;20025;-38
2023/04/12 09:44:38;;;;;;;14.98;2.80;;;13.20;99.90;;;;;;5070580;28;20029;-38
2023/04/12 09:47:05;;;;;;;15.43;2.42;;;13.30;99.90;;;;;;5064686;28;20436;-41
2023/04/12 09:49:40;;;;;;;13.50;2.03;;;13.40;99.90;;;;;;5073848;28;20111;-39
2023/04/12 09:52:11;;;;;;;10.73;1.75;;;13.50;99.90;;;;;;5055635;28;20481;-38
2023/04/12 09:54:42;;;;;;;11.48;2.58;;;13.70;99.90;;;;;;5065355;28;20090;-37
2023/04/12 09:57:09;;;;;;;15.68;2.10;;;13.90;99.90;;;;;;5072659;28;20028;-35
2023/04/12 09:59:39;;;;;;;14.15;2.78;;;14.10;99.90;;;;;;5057425;28;20060;-37
2023/04/12 10:02:18;;;;;;;11.25;1.42;;;14.40;99.90;;;;;;5053631;28;20498;-32
2023/04/12 10:04:47;;;;;;;11.57;1.83;;;14.60;99.90;;;;;;5066146;28;20037;-38
2023/04/12 10:07:13;;;;;;;25.90;5.40;;;14.70;99.90;;;;;;5075230;28;20020;-35
2023/04/12 10:09:40;;;;;;;13.82;2.50;;;14.50;99.90;;;;;;5075283;28;20020;-35
2023/04/12 10:12:07;;;;;;;12.57;2.72;;;14.30;99.90;;;;;;5074525;28;20512;-36
2023/04/12 10:14:33;;;;;;;12.52;2.10;;;14.20;99.90;;;;;;5071435;28;20509;-35
2023/04/12 10:17:00;;;;;;;9.02;1.88;;;14.20;99.90;;;;;;5093164;27;20120;-39
2023/04/12 10:19:28;;;;;;;21.10;2.47;;;14.10;99.90;;;;;;5067290;28;20049;-39
2023/04/12 10:21:55;;;;;;;10.25;2.13;;;13.90;99.90;;;;;;5066947;28;20458;-39
2023/04/12 10:24:25;;;;;;;19.00;2.70;;;13.70;99.90;;;;;;5054963;28;20060;-38
2023/04/12 10:26:54;;;;;;;14.35;2.35;;;13.70;99.90;;;;;;5055336;28;20469;-41
2023/04/12 10:29:24;;;;;;;10.70;1.95;;;13.60;99.90;;;;;;5068639;28;20077;-38
2023/04/12 10:31:51;;;;;;;24.25;3.13;;;13.80;99.90;;;;;;5062956;28;20040;-37
2023/04/12 10:34:17;;;;;;;10.13;2.47;;;13.90;99.90;;;;;;5072555;28;20468;-38
2023/04/12 10:36:54;;;;;;;11.77;1.88;;;14.00;99.90;;;;;;5074910;28;20086;-38
2023/04/12 10:39:42;;;;;;;10.82;1.75;;;14.00;99.90;;;;;;5074538;28;20029;-36
2023/04/12 10:42:16;;;;;;;16.85;2.83;;;13.90;99.90;;;;;;5074928;28;20366;-36
2023/04/12 10:44:41;;;;;;;17.35;2.15;;;13.60;99.90;;;;;;5071543;28;20038;-39
2023/04/12 10:47:08;;;;;;;13.57;1.95;;;13.40;99.90;;;;;;5072886;28;20029;-36
2023/04/12 10:49:34;;;;;;;16.77;2.65;;;13.20;99.90;;;;;;5074298;28;20032;-39
2023/04/12 10:52:00;;;;;;;13.00;2.22;;;13.00;99.90;;;;;;5074247;28;20016;-38
2023/04/12 10:54:26;;;;;;;12.95;1.60;;;13.00;99.90;;;;;;5065430;28;20032;-34
2023/04/12 10:56:51;;;;;;;13.85;1.90;;;13.00;99.90;;;;;;5054067;28;20025;-35
2023/04/12 10:59:18;;;;;;;16.02;2.60;;;13.20;99.90;;;;;;5054223;28;20505;-37
2023/04/12 11:02:13;;;;;;;13.77;2.75;;;13.50;99.90;;;;;;5054222;28;20036;-38
2023/04/12 11:05:04;;;;;;;16.08;2.38;;;13.70;99.90;;;;;;5060431;28;20554;-37
2023/04/12 11:07:45;;;;;;;8.48;1.60;;;13.90;99.90;;;;;;5068179;28;20479;-37
2023/04/12 11:10:20;;;;;;;17.25;2.33;;;14.30;99.90;;;;;;5074299;28;20035;-39
2023/04/12 11:12:54;;;;;;;10.25;1.77;;;14.40;99.90;;;;;;5072227;28;20063;-41
2023/04/12 11:15:20;;;;;;;12.68;2.00;;;14.40;99.90;;;;;;5054388;28;20042;-37
2023/04/12 11:17:54;;;;;;;12.85;2.33;;;14.60;99.90;;;;;;5054637;28;20041;-38
2023/04/12 11:20:20;;;;;;;8.05;1.88;;;14.90;99.90;;;;;;5071523;28;20029;-38
2023/04/12 11:22:46;;;;;;;12.63;2.30;;;15.10;99.90;;;;;;5074162;28;20028;-38
2023/04/12 11:25:16;;;;;;;12.73;3.20;;;15.20;99.90;;;;;;5067129;28;20013;-40
2023/04/12 11:27:49;;;;;;;6.93;1.13;;;15.20;99.90;;;;;;5064334;28;20389;-45
2023/04/12 11:30:15;;;;;;;9.18;2.17;;;15.10;99.90;;;;;;5059871;28;20071;-50
2023/04/12 11:32:44;;;;;;;7.25;1.55;;;15.30;99.90;;;;;;5064375;28;20453;-47
2023/04/12 11:35:10;;;;;;;7.47;1.08;;;15.10;99.90;;;;;;5064257;28;20175;-44
2023/04/12 11:37:37;;;;;;;10.25;1.83;;;15.10;99.90;;;;;;5053316;28;20111;-44
2023/04/12 11:40:08;;;;;;;7.85;1.50;;;15.10;99.90;;;;;;5054741;28;20033;-43
2023/04/12 11:42:34;;;;;;;7.93;2.15;;;15.00;99.90;;;;;;5053882;28;20033;-44
2023/04/12 11:45:00;;;;;;;21.52;2.70;;;15.10;99.90;;;;;;5054896;28;20025;-43
2023/04/12 11:47:26;;;;;;;8.52;1.13;;;15.00;99.90;;;;;;5059700;28;20032;-46
2023/04/12 11:49:56;;;;;;;5.10;1.77;;;15.10;99.90;;;;;;5073462;28;20095;-45
2023/04/12 11:52:32;;;;;;;6.78;0.90;;;15.10;99.90;;;;;;5073546;28;20032;-45
2023/04/12 11:55:07;;;;;;;6.38;0.90;;;15.00;99.90;;;;;;5072486;28;20035;-47
2023/04/12 11:57:34;;;;;;;3.08;0.70;;;15.10;99.90;;;;;;5062886;28;20106;-46
2023/04/12 12:00:00;;;;;;;6.85;1.27;;;15.10;99.90;;;;;;5056453;28;20412;-43
2023/04/12 12:02:27;;;;;;;8.27;1.30;;;15.30;99.90;;;;;;5067088;28;20409;-48
2023/04/12 12:04:54;;;;;;;8.68;0.75;;;15.30;99.90;;;;;;5073261;28;20020;-48
2023/04/12 12:07:21;;;;;;;6.70;1.02;;;15.20;99.90;;;;;;5068394;28;20539;-43
2023/04/12 12:09:47;;;;;;;2.95;0.65;;;15.10;99.90;;;;;;5052009;28;20044;-45
2023/04/12 12:12:13;;;;;;;4.22;0.77;;;15.00;99.90;;;;;;5052889;28;20477;-43
2023/04/12 12:14:39;;;;;;;4.20;1.50;;;14.90;99.90;;;;;;5053046;28;20025;-45
2023/04/12 12:17:15;;;;;;;3.08;0.65;;;14.90;99.90;;;;;;5053179;28;20382;-47
2023/04/12 12:19:43;;;;;;;2.40;0.75;;;15.00;99.90;;;;;;5065270;28;20542;-46
2023/04/12 12:22:09;;;;;;;;;;;15.10;98.80;;;;;;5060849;28;20016;-46
2023/04/12 12:24:35;;;;;;;5.07;0.80;;;15.10;99.90;;;;;;5064539;28;19908;-49
2023/04/12 12:27:03;;;;;;;4.60;0.70;;;15.00;99.40;;;;;;5052749;28;20029;-47
2023/04/12 12:29:38;;;;;;;3.13;0.82;;;14.80;98.60;;;;;;5052923;28;20032;-43
2023/04/12 12:32:13;;;;;;;5.25;0.75;;;14.60;99.70;;;;;;5056411;28;20107;-42
2023/04/12 12:34:53;;;;;;;2.83;0.82;;;14.60;99.90;;;;;;5067592;28;20033;-42
2023/04/12 12:37:21;;;;;;;9.20;1.35;;;14.50;99.80;;;;;;5058802;28;20079;-46
2023/04/12 12:40:10;;;;;;;4.13;0.88;;;14.50;99.90;;;;;;5072883;28;20384;-47
2023/04/12 12:42:36;;;;;;;3.55;0.95;;;14.60;99.90;;;;;;5073078;28;20119;-46
2023/04/12 12:45:03;;;;;;;4.45;0.88;;;14.60;99.90;;;;;;5060634;28;20485;-46
2023/04/12 12:47:30;;;;;;;9.87;1.37;;;14.60;99.90;;;;;;5055595;28;20386;-44
2023/04/12 12:49:56;;;;;;;2.80;0.53;;;14.30;99.10;;;;;;5052686;28;20032;-46
2023/04/12 12:52:22;;;;;;;4.28;0.68;;;14.40;99.90;;;;;;5060067;28;20059;-48
2023/04/12 12:54:48;;;;;;;2.42;1.10;;;14.30;99.00;;;;;;5072797;28;20060;-44